sensor_id;sensor_type;location;lat;lon;timestamp;P1;durP1;ratioP1;P2;durP2;ratioP2
72797;SDS011;61084;55.816;37.036;2022-11-04T00:01:17;22.80;;;7.32;;
72797;SDS011;61084;55.816;37.036;2022-11-04T00:03:44;19.90;;;6.60;;
72797;SDS011;61084;55.816;37.036;2022-11-04T00:06:10;24.92;;;8.18;;
72797;SDS011;61084;55.816;37.036;2022-11-04T00:08:36;22.70;;;6.85;;
72797;SDS011;61084;55.816;37.036;2022-11-04T00:11:02;21.98;;;7.38;;
72797;SDS011;61084;55.816;37.036;2022-11-04T00:13:46;21.70;;;6.45;;
72797;SDS011;61084;55.816;37.036;2022-11-04T00:16:12;21.63;;;7.10;;
72797;SDS011;61084;55.816;37.036;2022-11-04T00:19:00;20.23;;;5.93;;
72797;SDS011;61084;55.816;37.036;2022-11-04T00:21:27;18.35;;;6.28;;
72797;SDS011;61084;55.816;37.036;2022-11-04T00:24:11;19.40;;;7.07;;
72797;SDS011;61084;55.816;37.036;2022-11-04T00:26:57;16.27;;;6.50;;
72797;SDS011;61084;55.816;37.036;2022-11-04T00:29:42;21.40;;;7.55;;
72797;SDS011;61084;55.816;37.036;2022-11-04T00:32:08;20.02;;;6.50;;
72797;SDS011;61084;55.816;37.036;2022-11-04T00:34:52;19.45;;;6.75;;
72797;SDS011;61084;55.816;37.036;2022-11-04T00:37:18;13.77;;;5.93;;
72797;SDS011;61084;55.816;37.036;2022-11-04T00:39:44;23.15;;;7.68;;
72797;SDS011;61084;55.816;37.036;2022-11-04T00:42:10;20.77;;;6.40;;
72797;SDS011;61084;55.816;37.036;2022-11-04T00:44:36;20.60;;;6.88;;
72797;SDS011;61084;55.816;37.036;2022-11-04T00:47:01;30.17;;;9.63;;
72797;SDS011;61084;55.816;37.036;2022-11-04T00:49:28;19.88;;;6.90;;
72797;SDS011;61084;55.816;37.036;2022-11-04T00:51:53;27.63;;;9.77;;
72797;SDS011;61084;55.816;37.036;2022-11-04T00:54:19;23.15;;;6.80;;
72797;SDS011;61084;55.816;37.036;2022-11-04T00:56:45;21.45;;;7.25;;
72797;SDS011;61084;55.816;37.036;2022-11-04T00:59:13;18.88;;;6.55;;
72797;SDS011;61084;55.816;37.036;2022-11-04T01:01:39;27.75;;;8.77;;
72797;SDS011;61084;55.816;37.036;2022-11-04T01:04:05;23.05;;;7.10;;
72797;SDS011;61084;55.816;37.036;2022-11-04T01:06:31;30.30;;;9.43;;
72797;SDS011;61084;55.816;37.036;2022-11-04T01:09:04;20.17;;;6.78;;
72797;SDS011;61084;55.816;37.036;2022-11-04T01:11:34;19.70;;;6.47;;
72797;SDS011;61084;55.816;37.036;2022-11-04T01:14:00;23.73;;;6.47;;
72797;SDS011;61084;55.816;37.036;2022-11-04T01:16:26;18.65;;;6.88;;
72797;SDS011;61084;55.816;37.036;2022-11-04T01:18:53;16.83;;;6.47;;
72797;SDS011;61084;55.816;37.036;2022-11-04T01:21:19;24.42;;;7.07;;
72797;SDS011;61084;55.816;37.036;2022-11-04T01:23:45;22.67;;;7.68;;
72797;SDS011;61084;55.816;37.036;2022-11-04T01:26:12;18.83;;;7.22;;
72797;SDS011;61084;55.816;37.036;2022-11-04T01:28:45;18.60;;;6.70;;
72797;SDS011;61084;55.816;37.036;2022-11-04T01:31:12;14.68;;;6.10;;
72797;SDS011;61084;55.816;37.036;2022-11-04T01:33:43;19.25;;;6.18;;
72797;SDS011;61084;55.816;37.036;2022-11-04T01:36:09;18.80;;;7.07;;
72797;SDS011;61084;55.816;37.036;2022-11-04T01:38:35;21.88;;;7.40;;
72797;SDS011;61084;55.816;37.036;2022-11-04T01:41:01;24.50;;;8.85;;
72797;SDS011;61084;55.816;37.036;2022-11-04T01:43:44;19.85;;;6.47;;
72797;SDS011;61084;55.816;37.036;2022-11-04T01:46:27;18.85;;;6.65;;
72797;SDS011;61084;55.816;37.036;2022-11-04T01:49:49;20.95;;;6.90;;
72797;SDS011;61084;55.816;37.036;2022-11-04T01:52:05;15.10;;;5.35;;
72797;SDS011;61084;55.816;37.036;2022-11-04T01:54:35;11.13;;;4.25;;
72797;SDS011;61084;55.816;37.036;2022-11-04T01:57:04;15.70;;;5.95;;
72797;SDS011;61084;55.816;37.036;2022-11-04T01:59:34;14.93;;;5.35;;
72797;SDS011;61084;55.816;37.036;2022-11-04T02:02:03;13.38;;;5.53;;
72797;SDS011;61084;55.816;37.036;2022-11-04T02:04:29;16.52;;;5.07;;
72797;SDS011;61084;55.816;37.036;2022-11-04T02:06:57;15.15;;;5.68;;
72797;SDS011;61084;55.816;37.036;2022-11-04T02:09:26;16.65;;;5.75;;
72797;SDS011;61084;55.816;37.036;2022-11-04T02:11:55;17.30;;;5.68;;
72797;SDS011;61084;55.816;37.036;2022-11-04T02:14:40;19.40;;;6.95;;
72797;SDS011;61084;55.816;37.036;2022-11-04T02:22:44;14.50;;;5.85;;
72797;SDS011;61084;55.816;37.036;2022-11-04T02:31:08;15.52;;;5.32;;
72797;SDS011;61084;55.816;37.036;2022-11-04T02:38:59;14.27;;;5.65;;
72797;SDS011;61084;55.816;37.036;2022-11-04T02:41:39;13.82;;;5.63;;
72797;SDS011;61084;55.816;37.036;2022-11-04T02:47:12;10.85;;;4.50;;
72797;SDS011;61084;55.816;37.036;2022-11-04T02:52:18;11.35;;;4.20;;
72797;SDS011;61084;55.816;37.036;2022-11-04T02:55:02;12.98;;;4.10;;
72797;SDS011;61084;55.816;37.036;2022-11-04T02:57:33;12.02;;;4.25;;
72797;SDS011;61084;55.816;37.036;2022-11-04T03:00:03;9.63;;;3.83;;
72797;SDS011;61084;55.816;37.036;2022-11-04T03:02:42;14.38;;;4.28;;
72797;SDS011;61084;55.816;37.036;2022-11-04T03:05:14;13.55;;;4.70;;
72797;SDS011;61084;55.816;37.036;2022-11-04T03:07:44;9.65;;;4.47;;
72797;SDS011;61084;55.816;37.036;2022-11-04T03:10:55;11.07;;;5.03;;
72797;SDS011;61084;55.816;37.036;2022-11-04T03:13:07;9.63;;;3.85;;
72797;SDS011;61084;55.816;37.036;2022-11-04T03:15:37;10.63;;;4.18;;
72797;SDS011;61084;55.816;37.036;2022-11-04T03:20:47;8.10;;;3.30;;
72797;SDS011;61084;55.816;37.036;2022-11-04T03:23:15;9.90;;;4.40;;
72797;SDS011;61084;55.816;37.036;2022-11-04T03:25:45;11.85;;;4.28;;
72797;SDS011;61084;55.816;37.036;2022-11-04T03:28:29;9.48;;;3.97;;
72797;SDS011;61084;55.816;37.036;2022-11-04T03:31:04;10.38;;;4.03;;
72797;SDS011;61084;55.816;37.036;2022-11-04T03:33:42;9.20;;;3.85;;
72797;SDS011;61084;55.816;37.036;2022-11-04T03:36:09;12.38;;;4.47;;
72797;SDS011;61084;55.816;37.036;2022-11-04T03:38:36;9.38;;;3.65;;
72797;SDS011;61084;55.816;37.036;2022-11-04T03:41:03;10.65;;;4.10;;
72797;SDS011;61084;55.816;37.036;2022-11-04T03:43:36;8.00;;;4.13;;
72797;SDS011;61084;55.816;37.036;2022-11-04T03:46:09;10.48;;;3.72;;
72797;SDS011;61084;55.816;37.036;2022-11-04T03:48:36;12.27;;;4.38;;
72797;SDS011;61084;55.816;37.036;2022-11-04T03:51:02;10.13;;;3.92;;
72797;SDS011;61084;55.816;37.036;2022-11-04T03:53:28;10.45;;;4.15;;
72797;SDS011;61084;55.816;37.036;2022-11-04T04:03:59;10.60;;;3.92;;
72797;SDS011;61084;55.816;37.036;2022-11-04T04:06:33;10.38;;;3.83;;
72797;SDS011;61084;55.816;37.036;2022-11-04T04:11:39;9.15;;;3.90;;
72797;SDS011;61084;55.816;37.036;2022-11-04T04:14:18;8.88;;;3.95;;
72797;SDS011;61084;55.816;37.036;2022-11-04T04:17:05;12.77;;;4.20;;
72797;SDS011;61084;55.816;37.036;2022-11-04T04:19:43;9.02;;;4.03;;
72797;SDS011;61084;55.816;37.036;2022-11-04T04:22:24;7.88;;;3.75;;
72797;SDS011;61084;55.816;37.036;2022-11-04T04:24:55;10.75;;;4.32;;
72797;SDS011;61084;55.816;37.036;2022-11-04T04:27:42;9.57;;;3.42;;
72797;SDS011;61084;55.816;37.036;2022-11-04T04:30:12;11.30;;;3.42;;
72797;SDS011;61084;55.816;37.036;2022-11-04T04:32:43;8.15;;;3.63;;
72797;SDS011;61084;55.816;37.036;2022-11-04T04:35:09;8.80;;;3.33;;
72797;SDS011;61084;55.816;37.036;2022-11-04T04:37:55;8.57;;;3.45;;
72797;SDS011;61084;55.816;37.036;2022-11-04T04:40:49;15.48;;;5.50;;
72797;SDS011;61084;55.816;37.036;2022-11-04T04:43:41;15.18;;;5.53;;
72797;SDS011;61084;55.816;37.036;2022-11-04T04:46:29;7.97;;;3.75;;
72797;SDS011;61084;55.816;37.036;2022-11-04T04:49:06;9.40;;;3.78;;
72797;SDS011;61084;55.816;37.036;2022-11-04T04:51:33;15.35;;;3.60;;
72797;SDS011;61084;55.816;37.036;2022-11-04T04:54:03;10.02;;;4.03;;
72797;SDS011;61084;55.816;37.036;2022-11-04T04:56:28;8.38;;;3.75;;
72797;SDS011;61084;55.816;37.036;2022-11-04T04:58:54;8.93;;;4.05;;
72797;SDS011;61084;55.816;37.036;2022-11-04T05:01:20;10.57;;;4.30;;
72797;SDS011;61084;55.816;37.036;2022-11-04T05:03:46;8.68;;;3.80;;
72797;SDS011;61084;55.816;37.036;2022-11-04T05:06:12;6.90;;;3.38;;
72797;SDS011;61084;55.816;37.036;2022-11-04T05:08:37;10.77;;;4.07;;
72797;SDS011;61084;55.816;37.036;2022-11-04T05:11:03;10.48;;;3.92;;
72797;SDS011;61084;55.816;37.036;2022-11-04T05:13:29;10.73;;;3.95;;
72797;SDS011;61084;55.816;37.036;2022-11-04T05:15:56;9.27;;;4.30;;
72797;SDS011;61084;55.816;37.036;2022-11-04T05:18:27;7.80;;;3.42;;
72797;SDS011;61084;55.816;37.036;2022-11-04T05:20:53;11.15;;;3.63;;
72797;SDS011;61084;55.816;37.036;2022-11-04T05:23:19;8.95;;;4.00;;
72797;SDS011;61084;55.816;37.036;2022-11-04T05:25:45;9.38;;;3.35;;
72797;SDS011;61084;55.816;37.036;2022-11-04T05:28:10;8.73;;;3.80;;
72797;SDS011;61084;55.816;37.036;2022-11-04T05:30:36;6.47;;;2.85;;
72797;SDS011;61084;55.816;37.036;2022-11-04T05:33:02;8.18;;;3.22;;
72797;SDS011;61084;55.816;37.036;2022-11-04T05:35:29;8.20;;;3.47;;
72797;SDS011;61084;55.816;37.036;2022-11-04T05:37:55;7.25;;;3.40;;
72797;SDS011;61084;55.816;37.036;2022-11-04T05:40:21;9.75;;;3.78;;
72797;SDS011;61084;55.816;37.036;2022-11-04T05:42:47;7.72;;;3.05;;
72797;SDS011;61084;55.816;37.036;2022-11-04T05:45:13;8.30;;;3.70;;
72797;SDS011;61084;55.816;37.036;2022-11-04T05:47:39;8.02;;;3.85;;
72797;SDS011;61084;55.816;37.036;2022-11-04T05:50:05;7.38;;;3.42;;
72797;SDS011;61084;55.816;37.036;2022-11-04T05:52:31;7.82;;;3.50;;
72797;SDS011;61084;55.816;37.036;2022-11-04T05:54:57;7.78;;;3.40;;
72797;SDS011;61084;55.816;37.036;2022-11-04T05:57:23;6.60;;;3.22;;
72797;SDS011;61084;55.816;37.036;2022-11-04T05:59:48;8.70;;;3.70;;
72797;SDS011;61084;55.816;37.036;2022-11-04T06:02:14;5.85;;;2.72;;
72797;SDS011;61084;55.816;37.036;2022-11-04T06:04:40;7.28;;;3.20;;
72797;SDS011;61084;55.816;37.036;2022-11-04T06:07:06;6.60;;;3.20;;
72797;SDS011;61084;55.816;37.036;2022-11-04T06:09:31;6.03;;;2.95;;
72797;SDS011;61084;55.816;37.036;2022-11-04T06:14:41;7.00;;;2.90;;
72797;SDS011;61084;55.816;37.036;2022-11-04T06:17:10;7.30;;;3.05;;
72797;SDS011;61084;55.816;37.036;2022-11-04T06:19:40;9.93;;;3.65;;
72797;SDS011;61084;55.816;37.036;2022-11-04T06:22:06;7.70;;;3.33;;
72797;SDS011;61084;55.816;37.036;2022-11-04T06:24:33;6.38;;;3.13;;
72797;SDS011;61084;55.816;37.036;2022-11-04T06:26:59;7.80;;;3.30;;
72797;SDS011;61084;55.816;37.036;2022-11-04T06:29:24;7.78;;;3.35;;
72797;SDS011;61084;55.816;37.036;2022-11-04T06:31:50;7.32;;;3.08;;
72797;SDS011;61084;55.816;37.036;2022-11-04T06:34:16;6.32;;;3.17;;
72797;SDS011;61084;55.816;37.036;2022-11-04T06:36:42;6.47;;;3.20;;
72797;SDS011;61084;55.816;37.036;2022-11-04T06:39:07;6.45;;;2.85;;
72797;SDS011;61084;55.816;37.036;2022-11-04T06:41:33;6.00;;;2.80;;
72797;SDS011;61084;55.816;37.036;2022-11-04T06:43:59;5.60;;;2.85;;
72797;SDS011;61084;55.816;37.036;2022-11-04T06:46:26;8.18;;;3.50;;
72797;SDS011;61084;55.816;37.036;2022-11-04T06:48:55;6.70;;;2.85;;
72797;SDS011;61084;55.816;37.036;2022-11-04T06:51:22;7.10;;;3.05;;
72797;SDS011;61084;55.816;37.036;2022-11-04T06:53:48;5.70;;;2.85;;
72797;SDS011;61084;55.816;37.036;2022-11-04T06:56:14;6.70;;;3.08;;
72797;SDS011;61084;55.816;37.036;2022-11-04T06:58:40;5.80;;;2.60;;
72797;SDS011;61084;55.816;37.036;2022-11-04T07:01:05;8.80;;;3.53;;
72797;SDS011;61084;55.816;37.036;2022-11-04T07:03:31;10.90;;;3.47;;
72797;SDS011;61084;55.816;37.036;2022-11-04T07:05:57;6.07;;;3.15;;
72797;SDS011;61084;55.816;37.036;2022-11-04T07:08:23;9.35;;;3.92;;
72797;SDS011;61084;55.816;37.036;2022-11-04T07:10:49;6.90;;;2.67;;
72797;SDS011;61084;55.816;37.036;2022-11-04T07:13:15;8.75;;;3.85;;
72797;SDS011;61084;55.816;37.036;2022-11-04T07:15:41;9.65;;;3.35;;
72797;SDS011;61084;55.816;37.036;2022-11-04T07:18:07;9.75;;;3.80;;
72797;SDS011;61084;55.816;37.036;2022-11-04T07:20:35;10.63;;;3.58;;
72797;SDS011;61084;55.816;37.036;2022-11-04T07:23:00;8.20;;;3.45;;
72797;SDS011;61084;55.816;37.036;2022-11-04T07:25:26;8.20;;;3.30;;
72797;SDS011;61084;55.816;37.036;2022-11-04T07:27:52;6.70;;;3.20;;
72797;SDS011;61084;55.816;37.036;2022-11-04T07:30:18;7.47;;;3.22;;
72797;SDS011;61084;55.816;37.036;2022-11-04T07:32:47;10.85;;;3.65;;
72797;SDS011;61084;55.816;37.036;2022-11-04T07:35:13;8.10;;;3.08;;
72797;SDS011;61084;55.816;37.036;2022-11-04T07:37:39;7.72;;;3.22;;
72797;SDS011;61084;55.816;37.036;2022-11-04T07:40:05;7.72;;;3.03;;
72797;SDS011;61084;55.816;37.036;2022-11-04T07:42:31;7.45;;;3.35;;
72797;SDS011;61084;55.816;37.036;2022-11-04T07:45:04;6.95;;;3.00;;
72797;SDS011;61084;55.816;37.036;2022-11-04T07:47:30;8.48;;;3.47;;
72797;SDS011;61084;55.816;37.036;2022-11-04T07:49:56;8.75;;;3.25;;
72797;SDS011;61084;55.816;37.036;2022-11-04T07:52:22;8.88;;;2.78;;
72797;SDS011;61084;55.816;37.036;2022-11-04T07:54:48;7.50;;;3.08;;
72797;SDS011;61084;55.816;37.036;2022-11-04T07:57:15;8.50;;;3.30;;
72797;SDS011;61084;55.816;37.036;2022-11-04T07:59:41;11.45;;;4.25;;
72797;SDS011;61084;55.816;37.036;2022-11-04T08:02:07;8.00;;;3.33;;
72797;SDS011;61084;55.816;37.036;2022-11-04T08:04:35;7.97;;;3.40;;
72797;SDS011;61084;55.816;37.036;2022-11-04T08:07:01;7.82;;;2.90;;
72797;SDS011;61084;55.816;37.036;2022-11-04T08:09:27;10.70;;;3.75;;
72797;SDS011;61084;55.816;37.036;2022-11-04T08:11:53;8.70;;;3.50;;
72797;SDS011;61084;55.816;37.036;2022-11-04T08:14:19;9.45;;;3.10;;
72797;SDS011;61084;55.816;37.036;2022-11-04T08:16:44;9.98;;;3.50;;
72797;SDS011;61084;55.816;37.036;2022-11-04T08:19:10;10.13;;;3.47;;
72797;SDS011;61084;55.816;37.036;2022-11-04T08:21:36;7.93;;;3.72;;
72797;SDS011;61084;55.816;37.036;2022-11-04T08:24:02;7.28;;;3.28;;
72797;SDS011;61084;55.816;37.036;2022-11-04T08:26:28;10.85;;;3.28;;
72797;SDS011;61084;55.816;37.036;2022-11-04T08:28:54;5.75;;;2.72;;
72797;SDS011;61084;55.816;37.036;2022-11-04T08:31:24;9.65;;;3.60;;
72797;SDS011;61084;55.816;37.036;2022-11-04T08:33:52;6.78;;;3.05;;
72797;SDS011;61084;55.816;37.036;2022-11-04T08:36:19;7.03;;;2.85;;
72797;SDS011;61084;55.816;37.036;2022-11-04T08:38:56;7.85;;;3.10;;
72797;SDS011;61084;55.816;37.036;2022-11-04T08:41:24;7.47;;;3.05;;
72797;SDS011;61084;55.816;37.036;2022-11-04T08:43:54;5.35;;;2.45;;
72797;SDS011;61084;55.816;37.036;2022-11-04T08:48:46;4.82;;;2.58;;
72797;SDS011;61084;55.816;37.036;2022-11-04T08:51:18;6.32;;;2.72;;
72797;SDS011;61084;55.816;37.036;2022-11-04T08:53:46;8.73;;;2.78;;
72797;SDS011;61084;55.816;37.036;2022-11-04T08:56:14;7.47;;;3.05;;
72797;SDS011;61084;55.816;37.036;2022-11-04T08:58:44;5.40;;;2.40;;
72797;SDS011;61084;55.816;37.036;2022-11-04T09:01:10;8.45;;;3.65;;
72797;SDS011;61084;55.816;37.036;2022-11-04T09:03:37;7.18;;;2.95;;
72797;SDS011;61084;55.816;37.036;2022-11-04T09:06:05;8.40;;;3.28;;
72797;SDS011;61084;55.816;37.036;2022-11-04T09:08:33;8.85;;;3.38;;
72797;SDS011;61084;55.816;37.036;2022-11-04T09:10:59;6.93;;;3.15;;
72797;SDS011;61084;55.816;37.036;2022-11-04T09:13:25;6.57;;;2.80;;
72797;SDS011;61084;55.816;37.036;2022-11-04T09:15:52;5.05;;;2.60;;
72797;SDS011;61084;55.816;37.036;2022-11-04T09:18:18;10.73;;;3.42;;
72797;SDS011;61084;55.816;37.036;2022-11-04T09:20:44;7.93;;;3.17;;
72797;SDS011;61084;55.816;37.036;2022-11-04T09:23:09;7.53;;;3.67;;
72797;SDS011;61084;55.816;37.036;2022-11-04T09:25:35;9.18;;;3.50;;
72797;SDS011;61084;55.816;37.036;2022-11-04T09:28:01;5.72;;;2.88;;
72797;SDS011;61084;55.816;37.036;2022-11-04T09:30:28;8.93;;;3.67;;
72797;SDS011;61084;55.816;37.036;2022-11-04T09:32:54;6.15;;;2.70;;
72797;SDS011;61084;55.816;37.036;2022-11-04T09:35:20;6.38;;;2.70;;
72797;SDS011;61084;55.816;37.036;2022-11-04T09:37:46;6.55;;;2.60;;
72797;SDS011;61084;55.816;37.036;2022-11-04T09:40:19;7.18;;;2.55;;
72797;SDS011;61084;55.816;37.036;2022-11-04T09:45:26;7.40;;;2.92;;
72797;SDS011;61084;55.816;37.036;2022-11-04T09:48:00;7.50;;;3.20;;
72797;SDS011;61084;55.816;37.036;2022-11-04T09:50:43;6.32;;;2.97;;
72797;SDS011;61084;55.816;37.036;2022-11-04T09:55:57;6.03;;;2.83;;
72797;SDS011;61084;55.816;37.036;2022-11-04T09:58:33;6.80;;;3.13;;
72797;SDS011;61084;55.816;37.036;2022-11-04T10:11:49;7.80;;;4.35;;
72797;SDS011;61084;55.816;37.036;2022-11-04T10:19:59;6.15;;;3.08;;
72797;SDS011;61084;55.816;37.036;2022-11-04T10:22:58;7.20;;;3.45;;
72797;SDS011;61084;55.816;37.036;2022-11-04T10:25:37;8.65;;;3.17;;
72797;SDS011;61084;55.816;37.036;2022-11-04T10:28:23;6.25;;;2.70;;
72797;SDS011;61084;55.816;37.036;2022-11-04T10:30:55;7.65;;;3.25;;
72797;SDS011;61084;55.816;37.036;2022-11-04T10:33:40;7.82;;;3.13;;
72797;SDS011;61084;55.816;37.036;2022-11-04T10:36:10;6.82;;;3.13;;
72797;SDS011;61084;55.816;37.036;2022-11-04T10:51:51;7.70;;;3.42;;
72797;SDS011;61084;55.816;37.036;2022-11-04T10:54:18;6.45;;;3.30;;
72797;SDS011;61084;55.816;37.036;2022-11-04T10:56:53;8.30;;;3.95;;
72797;SDS011;61084;55.816;37.036;2022-11-04T10:59:28;11.18;;;4.00;;
72797;SDS011;61084;55.816;37.036;2022-11-04T11:01:56;6.80;;;3.55;;
72797;SDS011;61084;55.816;37.036;2022-11-04T11:04:31;9.80;;;4.00;;
72797;SDS011;61084;55.816;37.036;2022-11-04T11:06:59;7.97;;;3.80;;
72797;SDS011;61084;55.816;37.036;2022-11-04T11:09:28;8.18;;;3.85;;
72797;SDS011;61084;55.816;37.036;2022-11-04T11:11:58;9.85;;;3.83;;
72797;SDS011;61084;55.816;37.036;2022-11-04T11:19:53;6.65;;;3.00;;
72797;SDS011;61084;55.816;37.036;2022-11-04T11:27:46;7.03;;;3.55;;
72797;SDS011;61084;55.816;37.036;2022-11-04T11:30:21;8.27;;;3.80;;
72797;SDS011;61084;55.816;37.036;2022-11-04T11:32:53;7.18;;;3.83;;
72797;SDS011;61084;55.816;37.036;2022-11-04T11:35:24;7.05;;;3.58;;
72797;SDS011;61084;55.816;37.036;2022-11-04T11:37:53;8.00;;;3.53;;
72797;SDS011;61084;55.816;37.036;2022-11-04T11:40:23;8.70;;;3.85;;
72797;SDS011;61084;55.816;37.036;2022-11-04T11:42:58;8.73;;;2.92;;
72797;SDS011;61084;55.816;37.036;2022-11-04T11:45:26;8.15;;;4.10;;
72797;SDS011;61084;55.816;37.036;2022-11-04T11:47:53;6.35;;;3.38;;
72797;SDS011;61084;55.816;37.036;2022-11-04T11:50:23;7.50;;;3.33;;
72797;SDS011;61084;55.816;37.036;2022-11-04T11:53:15;6.43;;;3.58;;
72797;SDS011;61084;55.816;37.036;2022-11-04T11:55:44;10.07;;;4.15;;
72797;SDS011;61084;55.816;37.036;2022-11-04T11:58:23;7.03;;;3.45;;
72797;SDS011;61084;55.816;37.036;2022-11-04T12:01:01;6.88;;;3.50;;
72797;SDS011;61084;55.816;37.036;2022-11-04T12:03:46;7.95;;;4.00;;
72797;SDS011;61084;55.816;37.036;2022-11-04T12:06:23;8.02;;;3.28;;
72797;SDS011;61084;55.816;37.036;2022-11-04T12:12:07;7.68;;;3.63;;
72797;SDS011;61084;55.816;37.036;2022-11-04T12:25:29;9.38;;;3.78;;
72797;SDS011;61084;55.816;37.036;2022-11-04T12:36:31;9.85;;;4.05;;
72797;SDS011;61084;55.816;37.036;2022-11-04T12:44:23;9.52;;;4.05;;
72797;SDS011;61084;55.816;37.036;2022-11-04T12:47:18;8.77;;;4.00;;
72797;SDS011;61084;55.816;37.036;2022-11-04T12:50:08;8.82;;;4.22;;
72797;SDS011;61084;55.816;37.036;2022-11-04T13:01:09;10.15;;;4.43;;
72797;SDS011;61084;55.816;37.036;2022-11-04T13:06:27;11.02;;;4.50;;
72797;SDS011;61084;55.816;37.036;2022-11-04T13:09:07;8.48;;;4.32;;
72797;SDS011;61084;55.816;37.036;2022-11-04T13:11:52;8.63;;;4.55;;
72797;SDS011;61084;55.816;37.036;2022-11-04T13:14:33;10.63;;;4.00;;
72797;SDS011;61084;55.816;37.036;2022-11-04T13:17:11;12.30;;;3.92;;
72797;SDS011;61084;55.816;37.036;2022-11-04T13:19:42;9.07;;;4.13;;
72797;SDS011;61084;55.816;37.036;2022-11-04T13:22:16;8.23;;;3.60;;
72797;SDS011;61084;55.816;37.036;2022-11-04T13:24:48;11.30;;;4.53;;
72797;SDS011;61084;55.816;37.036;2022-11-04T13:27:18;11.07;;;4.75;;
72797;SDS011;61084;55.816;37.036;2022-11-04T13:29:48;11.10;;;3.85;;
72797;SDS011;61084;55.816;37.036;2022-11-04T13:37:43;9.05;;;4.20;;
72797;SDS011;61084;55.816;37.036;2022-11-04T13:40:23;13.68;;;5.28;;
72797;SDS011;61084;55.816;37.036;2022-11-04T13:43:05;21.02;;;7.55;;
72797;SDS011;61084;55.816;37.036;2022-11-04T13:48:38;9.82;;;4.60;;
72797;SDS011;61084;55.816;37.036;2022-11-04T13:51:16;7.18;;;3.83;;
72797;SDS011;61084;55.816;37.036;2022-11-04T13:56:28;4.25;;;2.15;;
72797;SDS011;61084;55.816;37.036;2022-11-04T13:58:58;10.02;;;4.90;;
72797;SDS011;61084;55.816;37.036;2022-11-04T14:01:28;14.10;;;4.97;;
72797;SDS011;61084;55.816;37.036;2022-11-04T14:06:53;9.00;;;4.13;;
72797;SDS011;61084;55.816;37.036;2022-11-04T14:09:31;13.25;;;4.50;;
72797;SDS011;61084;55.816;37.036;2022-11-04T14:14:45;10.57;;;4.55;;
72797;SDS011;61084;55.816;37.036;2022-11-04T14:22:29;8.50;;;4.03;;
72797;SDS011;61084;55.816;37.036;2022-11-04T14:24:58;9.77;;;3.92;;
72797;SDS011;61084;55.816;37.036;2022-11-04T14:27:32;9.18;;;3.67;;
72797;SDS011;61084;55.816;37.036;2022-11-04T14:30:03;9.38;;;3.92;;
72797;SDS011;61084;55.816;37.036;2022-11-04T14:32:30;9.65;;;4.13;;
72797;SDS011;61084;55.816;37.036;2022-11-04T14:35:05;8.90;;;4.13;;
72797;SDS011;61084;55.816;37.036;2022-11-04T14:37:40;9.57;;;4.07;;
72797;SDS011;61084;55.816;37.036;2022-11-04T14:40:06;10.25;;;4.45;;
72797;SDS011;61084;55.816;37.036;2022-11-04T14:42:49;10.77;;;4.10;;
72797;SDS011;61084;55.816;37.036;2022-11-04T14:45:20;10.18;;;4.63;;
72797;SDS011;61084;55.816;37.036;2022-11-04T14:47:53;8.05;;;3.97;;
72797;SDS011;61084;55.816;37.036;2022-11-04T14:50:23;8.50;;;4.20;;
72797;SDS011;61084;55.816;37.036;2022-11-04T14:55:29;11.00;;;4.32;;
72797;SDS011;61084;55.816;37.036;2022-11-04T14:57:58;9.60;;;4.20;;
72797;SDS011;61084;55.816;37.036;2022-11-04T15:03:14;10.30;;;3.95;;
72797;SDS011;61084;55.816;37.036;2022-11-04T15:05:58;9.50;;;3.70;;
72797;SDS011;61084;55.816;37.036;2022-11-04T15:13:34;12.52;;;4.28;;
72797;SDS011;61084;55.816;37.036;2022-11-04T15:16:13;11.27;;;3.85;;
72797;SDS011;61084;55.816;37.036;2022-11-04T15:18:39;9.23;;;3.72;;
72797;SDS011;61084;55.816;37.036;2022-11-04T15:21:06;7.85;;;4.15;;
72797;SDS011;61084;55.816;37.036;2022-11-04T15:23:38;7.47;;;3.70;;
72797;SDS011;61084;55.816;37.036;2022-11-04T15:26:21;8.25;;;4.00;;
72797;SDS011;61084;55.816;37.036;2022-11-04T15:28:49;6.55;;;3.30;;
72797;SDS011;61084;55.816;37.036;2022-11-04T15:31:17;8.38;;;3.80;;
72797;SDS011;61084;55.816;37.036;2022-11-04T15:33:47;7.45;;;3.75;;
72797;SDS011;61084;55.816;37.036;2022-11-04T15:36:16;9.32;;;4.10;;
72797;SDS011;61084;55.816;37.036;2022-11-04T15:38:49;10.40;;;4.10;;
72797;SDS011;61084;55.816;37.036;2022-11-04T15:41:25;8.40;;;3.75;;
72797;SDS011;61084;55.816;37.036;2022-11-04T15:44:15;9.02;;;3.83;;
72797;SDS011;61084;55.816;37.036;2022-11-04T15:46:46;10.90;;;3.83;;
72797;SDS011;61084;55.816;37.036;2022-11-04T15:49:19;9.50;;;4.20;;
72797;SDS011;61084;55.816;37.036;2022-11-04T15:51:49;8.48;;;3.53;;
72797;SDS011;61084;55.816;37.036;2022-11-04T15:54:27;9.15;;;3.75;;
72797;SDS011;61084;55.816;37.036;2022-11-04T15:56:58;8.90;;;3.92;;
72797;SDS011;61084;55.816;37.036;2022-11-04T15:59:28;8.93;;;4.30;;
72797;SDS011;61084;55.816;37.036;2022-11-04T16:01:57;7.85;;;4.05;;
72797;SDS011;61084;55.816;37.036;2022-11-04T16:04:25;8.23;;;4.38;;
72797;SDS011;61084;55.816;37.036;2022-11-04T16:09:54;11.13;;;4.43;;
72797;SDS011;61084;55.816;37.036;2022-11-04T16:12:28;9.57;;;3.78;;
72797;SDS011;61084;55.816;37.036;2022-11-04T16:14:58;8.63;;;3.80;;
72797;SDS011;61084;55.816;37.036;2022-11-04T16:17:24;11.48;;;4.55;;
72797;SDS011;61084;55.816;37.036;2022-11-04T16:19:58;11.60;;;4.30;;
72797;SDS011;61084;55.816;37.036;2022-11-04T16:22:29;11.80;;;4.22;;
72797;SDS011;61084;55.816;37.036;2022-11-04T16:24:59;11.73;;;4.60;;
72797;SDS011;61084;55.816;37.036;2022-11-04T16:27:29;15.05;;;5.75;;
72797;SDS011;61084;55.816;37.036;2022-11-04T16:30:02;24.95;;;7.20;;
72797;SDS011;61084;55.816;37.036;2022-11-04T16:32:47;9.27;;;4.38;;
72797;SDS011;61084;55.816;37.036;2022-11-04T16:35:25;8.95;;;4.22;;
72797;SDS011;61084;55.816;37.036;2022-11-04T16:37:53;7.97;;;4.03;;
72797;SDS011;61084;55.816;37.036;2022-11-04T16:40:21;9.65;;;3.85;;
72797;SDS011;61084;55.816;37.036;2022-11-04T16:42:48;9.40;;;3.88;;
72797;SDS011;61084;55.816;37.036;2022-11-04T16:45:35;9.10;;;4.20;;
72797;SDS011;61084;55.816;37.036;2022-11-04T16:48:02;7.38;;;3.35;;
72797;SDS011;61084;55.816;37.036;2022-11-04T16:50:28;7.75;;;3.60;;
72797;SDS011;61084;55.816;37.036;2022-11-04T16:52:56;9.98;;;3.78;;
72797;SDS011;61084;55.816;37.036;2022-11-04T16:55:22;7.35;;;3.72;;
72797;SDS011;61084;55.816;37.036;2022-11-04T16:57:50;6.80;;;3.67;;
72797;SDS011;61084;55.816;37.036;2022-11-04T17:00:23;6.78;;;3.60;;
72797;SDS011;61084;55.816;37.036;2022-11-04T17:02:50;7.97;;;3.55;;
72797;SDS011;61084;55.816;37.036;2022-11-04T17:05:17;9.32;;;3.60;;
72797;SDS011;61084;55.816;37.036;2022-11-04T17:07:43;7.93;;;3.67;;
72797;SDS011;61084;55.816;37.036;2022-11-04T17:10:14;10.23;;;4.38;;
72797;SDS011;61084;55.816;37.036;2022-11-04T17:12:43;9.13;;;3.78;;
72797;SDS011;61084;55.816;37.036;2022-11-04T17:15:10;9.43;;;4.05;;
72797;SDS011;61084;55.816;37.036;2022-11-04T17:17:36;6.80;;;3.80;;
72797;SDS011;61084;55.816;37.036;2022-11-04T17:20:02;7.32;;;3.55;;
72797;SDS011;61084;55.816;37.036;2022-11-04T17:22:30;6.93;;;3.50;;
72797;SDS011;61084;55.816;37.036;2022-11-04T17:25:01;10.27;;;4.93;;
72797;SDS011;61084;55.816;37.036;2022-11-04T17:27:28;8.75;;;4.28;;
72797;SDS011;61084;55.816;37.036;2022-11-04T17:29:53;10.30;;;4.60;;
72797;SDS011;61084;55.816;37.036;2022-11-04T17:32:19;8.43;;;3.83;;